Time;durP1;ratioP1;P1;durP2;ratioP2;P2;SDS_P1;SDS_P2;PMS_P1;PMS_P2;Temp;Humidity;BMP_temperature;BMP_pressure;BME280_temperature;BME280_humidity;BME280_pressure;Samples;Min_cycle;Max_cycle;Signal;HPM_P1;HPM_P2
2021/05/19 00:01:00;;;;;;;4.08;3.77;;;;;;;14.66;79.79;97916.96;1722303;81;20964;-52
2021/05/19 00:03:28;;;;;;;5.17;4.75;;;;;;;14.66;79.77;97921.02;1720635;81;22349;-52
2021/05/19 00:05:54;;;;;;;5.20;4.90;;;;;;;14.65;79.79;97919.80;1724347;81;21584;-52
2021/05/19 00:08:20;;;;;;;5.10;4.03;;;;;;;14.63;79.78;97919.94;1724258;81;21505;-52
2021/05/19 00:10:46;;;;;;;4.17;3.92;;;;;;;14.63;79.78;97918.59;1724691;81;20893;-52
2021/05/19 00:13:13;;;;;;;6.65;5.22;;;;;;;14.63;79.90;97920.48;1722008;81;21139;-52
2021/05/19 00:15:40;;;;;;;5.72;5.28;;;;;;;14.62;79.88;97922.82;1721311;81;21088;-52
2021/05/19 00:18:07;;;;;;;4.58;4.17;;;;;;;14.62;80.00;97919.62;1721941;81;21127;-52
2021/05/19 00:20:33;;;;;;;5.30;4.95;;;;;;;14.63;80.04;97921.30;1720321;81;21012;-52
2021/05/19 00:23:00;;;;;;;6.03;4.83;;;;;;;14.63;80.09;97924.01;1719634;81;21091;-52
2021/05/19 00:25:27;;;;;;;5.08;4.78;;;;;;;14.63;80.10;97919.94;1721826;81;21111;-52
2021/05/19 00:27:55;;;;;;;6.80;6.40;;;;;;;14.63;80.16;97917.77;1723983;81;21621;-52
2021/05/19 00:30:22;;;;;;;6.08;5.72;;;;;;;14.62;80.21;97920.11;1722285;81;21516;-51
2021/05/19 00:32:49;;;;;;;5.20;4.58;;;;;;;14.62;80.18;97916.05;1723727;81;21131;-52
2021/05/19 00:35:15;;;;;;;5.37;5.05;;;;;;;14.63;79.86;97916.41;1725344;81;20929;-52
2021/05/19 00:37:43;;;;;;;4.37;4.17;;;;;;;14.63;80.24;97915.88;1725122;81;20947;-51
2021/05/19 00:40:11;;;;;;;5.10;4.80;;;;;;;14.64;80.22;97908.12;1724210;81;21043;-52
2021/05/19 00:42:38;;;;;;;4.70;4.40;;;;;;;14.65;80.09;97912.54;1724691;81;21197;-52
2021/05/19 00:45:10;;;;;;;6.95;6.28;;;;;;;14.65;80.19;97903.06;1719716;81;21162;-52
2021/05/19 00:47:41;;;;;;;6.97;6.47;;;;;;;14.65;80.17;97906.27;1722364;81;21087;-52
2021/05/19 00:50:15;;;;;;;7.22;6.78;;;;;;;14.63;80.17;97897.45;1720960;81;21516;-52
2021/05/19 00:52:42;;;;;;;4.53;4.30;;;;;;;14.61;79.95;97894.89;1721327;81;21721;-52
2021/05/19 00:55:10;;;;;;;4.83;4.50;;;;;;;14.61;80.17;97891.33;1705921;80;21158;-51
2021/05/19 00:57:38;;;;;;;4.17;3.87;;;;;;;14.61;80.13;97896.24;1735468;80;20974;-51
2021/05/19 01:00:07;;;;;;;4.62;4.30;;;;;;;14.61;80.09;97899.45;1736305;80;21218;-52
2021/05/19 01:02:38;;;;;;;5.17;4.73;;;;;;;14.60;80.08;97904.00;1739843;80;21346;-52
2021/05/19 01:05:09;;;;;;;6.08;5.67;;;;;;;14.59;80.04;97903.65;1737036;80;21154;-51
2021/05/19 01:09:34;;;;;;;5.22;4.92;;;;;;;14.60;80.02;97905.86;1731040;80;21356;-52
2021/05/19 01:10:09;;;;;;;6.08;5.67;;;;;;;14.58;79.93;97899.72;1733964;80;20929;-52
2021/05/19 01:12:36;;;;;;;6.70;6.15;;;;;;;14.57;80.06;97899.36;1738610;80;21742;-52
2021/05/19 01:15:02;;;;;;;5.90;5.25;;;;;;;14.56;80.00;97907.13;1736633;80;21502;-52
2021/05/19 01:17:28;;;;;;;5.53;5.33;;;;;;;14.56;79.99;97911.19;1737295;80;21143;-52
2021/05/19 01:19:55;;;;;;;5.58;5.17;;;;;;;14.56;79.96;97916.60;1735568;80;21146;-52
2021/05/19 01:22:27;;;;;;;5.47;4.92;;;;;;;14.56;79.93;97909.84;1734927;80;21107;-51
2021/05/19 01:24:54;;;;;;;4.95;4.50;;;;;;;14.56;79.87;97907.13;1738310;80;21072;-52
2021/05/19 01:27:21;;;;;;;6.00;5.50;;;;;;;14.55;79.66;97905.41;1737760;80;21353;-51
2021/05/19 01:29:57;;;;;;;5.95;5.55;;;;;;;14.52;79.59;97907.08;1735654;80;21035;-51
2021/05/19 01:32:24;;;;;;;5.47;5.03;;;;;;;14.50;79.67;97903.16;1739236;80;21473;-52
2021/05/19 01:34:50;;;;;;;5.50;5.30;;;;;;;14.47;79.71;97902.07;1734635;80;21664;-51
2021/05/19 01:37:18;;;;;;;6.47;5.00;;;;;;;14.46;79.69;97911.19;1702836;82;21492;-52
2021/05/19 01:39:46;;;;;;;6.55;6.03;;;;;;;14.45;79.51;97910.00;1707399;80;21091;-51
2021/05/19 01:42:14;;;;;;;5.17;4.87;;;;;;;14.45;79.56;97903.23;1733922;80;21485;-49
2021/05/19 01:44:41;;;;;;;4.78;4.47;;;;;;;14.44;79.47;97902.88;1714095;80;21174;-52
2021/05/19 01:47:12;;;;;;;5.80;5.40;;;;;;;14.42;79.35;97903.51;1733754;80;21440;-52
2021/05/19 01:49:42;;;;;;;5.40;5.10;;;;;;;14.38;79.16;97908.30;1733572;80;21480;-52
2021/05/19 01:52:10;;;;;;;10.63;6.10;;;;;;;14.35;79.27;97910.82;1734896;80;21137;-52
2021/05/19 01:54:38;;;;;;;6.03;5.55;;;;;;;14.35;79.36;97918.94;1736297;80;22154;-52
2021/05/19 01:57:08;;;;;;;5.85;5.45;;;;;;;14.33;79.37;97919.57;1725812;81;21210;-52
2021/05/19 01:59:35;;;;;;;6.47;6.10;;;;;;;14.33;79.32;97918.72;1726510;81;20960;-52
2021/05/19 02:02:03;;;;;;;5.42;5.10;;;;;;;14.31;79.32;97916.14;1702203;81;21016;-52
2021/05/19 02:04:30;;;;;;;5.65;5.28;;;;;;;14.33;79.38;97924.98;1704889;81;20969;-52
2021/05/19 02:06:57;;;;;;;5.55;4.92;;;;;;;14.31;79.34;97925.62;1722511;81;21126;-51
2021/05/19 02:09:26;;;;;;;5.00;4.80;;;;;;;14.30;79.44;97929.31;1723321;81;21267;-51
2021/05/19 02:11:54;;;;;;;4.90;4.58;;;;;;;14.30;79.46;97925.75;1726497;81;21119;-51
2021/05/19 02:14:21;;;;;;;6.42;5.33;;;;;;;14.30;79.58;97918.98;1718668;81;21103;-52
2021/05/19 02:16:48;;;;;;;15.78;8.30;;;;;;;14.30;79.66;97925.26;1723941;81;21110;-52
2021/05/19 02:19:15;;;;;;;8.80;6.50;;;;;;;14.29;79.67;97928.13;1723305;81;21127;-52
2021/05/19 02:21:45;;;;;;;7.58;6.42;;;;;;;14.29;79.73;97936.25;1722678;81;21542;-52
2021/05/19 02:24:12;;;;;;;7.20;6.60;;;;;;;14.29;79.84;97938.42;1724948;81;21607;-52
2021/05/19 02:26:40;;;;;;;6.55;6.05;;;;;;;14.30;79.98;97937.93;1726830;81;21123;-51
2021/05/19 02:29:07;;;;;;;7.00;6.25;;;;;;;14.30;80.08;97934.73;1723486;81;20992;-51
2021/05/19 02:31:36;;;;;;;6.17;5.70;;;;;;;14.32;80.22;97938.16;1725584;81;20944;-52
2021/05/19 02:34:05;;;;;;;7.85;7.22;;;;;;;14.34;80.39;97934.82;1729274;81;21640;-52
2021/05/19 02:36:33;;;;;;;11.22;8.35;;;;;;;14.35;80.50;97935.18;1725397;81;21025;-51
2021/05/19 02:39:00;;;;;;;10.50;9.60;;;;;;;14.37;80.61;97939.11;1723613;81;20921;-52
2021/05/19 02:41:26;;;;;;;8.43;7.83;;;;;;;14.37;80.55;97936.39;1725408;81;21083;-52
2021/05/19 02:43:52;;;;;;;7.08;6.67;;;;;;;14.36;80.77;97935.54;1721698;81;21287;-52
2021/05/19 02:46:19;;;;;;;7.80;7.25;;;;;;;14.42;80.86;97934.64;1725350;81;20887;-52
2021/05/19 02:48:46;;;;;;;7.53;6.80;;;;;;;14.45;80.94;97939.78;1728598;81;20944;-52
2021/05/19 02:51:12;;;;;;;6.80;6.30;;;;;;;14.47;81.04;97935.05;1725082;81;21475;-52
2021/05/19 02:53:38;;;;;;;7.40;6.70;;;;;;;14.50;81.08;97941.05;1704485;82;20976;-52
2021/05/19 02:56:05;;;;;;;8.60;7.85;;;;;;;14.52;81.14;97940.91;1730707;81;20960;-52
2021/05/19 02:58:32;;;;;;;6.97;6.47;;;;;;;14.55;81.14;97946.88;1734297;80;21123;-52
2021/05/19 03:00:58;;;;;;;9.53;8.88;;;;;;;14.56;81.14;97951.80;1722946;80;21179;-51
2021/05/19 03:03:24;;;;;;;9.15;8.55;;;;;;;14.56;81.19;97946.38;1689783;82;21088;-52
2021/05/19 03:05:51;;;;;;;8.63;8.13;;;;;;;14.57;81.21;97942.69;1728571;80;21155;-52
2021/05/19 03:08:19;;;;;;;9.03;8.33;;;;;;;14.58;81.27;97947.96;1729335;80;21055;-52
2021/05/19 03:10:45;;;;;;;8.88;8.20;;;;;;;14.60;81.33;97945.12;1727811;80;21695;-52
2021/05/19 03:13:12;;;;;;;8.63;7.87;;;;;;;14.61;81.32;97944.98;1726267;80;21097;-52
2021/05/19 03:15:38;;;;;;;10.70;9.53;;;;;;;14.62;81.13;97949.90;1723684;80;21171;-52
2021/05/19 03:18:05;;;;;;;8.93;8.20;;;;;;;14.64;81.40;97954.65;1725496;80;21483;-52
2021/05/19 03:20:31;;;;;;;9.30;8.70;;;;;;;14.64;81.36;97957.36;1725190;80;21161;-52
2021/05/19 03:22:58;;;;;;;9.18;8.48;;;;;;;14.65;81.35;97954.51;1727566;80;22164;-53
2021/05/19 03:25:25;;;;;;;9.38;7.25;;;;;;;14.64;81.41;97957.36;1725855;80;21633;-51
2021/05/19 03:27:51;;;;;;;10.45;7.80;;;;;;;14.63;81.37;97959.73;1726314;80;21128;-51
2021/05/19 03:30:19;;;;;;;8.40;7.87;;;;;;;14.63;81.41;97955.14;1723990;80;21084;-51
2021/05/19 03:32:45;;;;;;;8.53;8.03;;;;;;;14.64;81.45;97956.00;1724803;80;21640;-52
2021/05/19 03:35:12;;;;;;;7.12;6.60;;;;;;;14.65;81.49;97959.92;1729891;80;21548;-51
2021/05/19 03:37:39;;;;;;;7.90;7.28;;;;;;;14.66;81.55;97965.70;1730813;80;21409;-52
2021/05/19 03:40:07;;;;;;;7.50;7.00;;;;;;;14.70;81.53;97962.22;1730323;80;20937;-52
2021/05/19 03:42:33;;;;;;;8.75;8.10;;;;;;;14.71;81.53;97965.29;1729979;80;20984;-52
2021/05/19 03:45:00;;;;;;;10.15;9.30;;;;;;;14.69;81.61;97964.58;1729076;80;21008;-51
2021/05/19 03:47:26;;;;;;;10.35;9.55;;;;;;;14.71;81.61;97963.94;1724404;80;21111;-52
2021/05/19 03:49:52;;;;;;;9.03;8.40;;;;;;;14.71;81.59;97968.00;1726430;80;21211;-52
2021/05/19 03:52:19;;;;;;;8.50;7.80;;;;;;;14.72;81.62;97967.83;1725463;80;21137;-51
2021/05/19 03:54:45;;;;;;;7.05;6.65;;;;;;;14.73;81.63;97971.39;1731899;80;21138;-52
2021/05/19 03:57:11;;;;;;;6.12;5.83;;;;;;;14.74;81.59;97969.91;1728517;80;21043;-51
2021/05/19 03:59:38;;;;;;;6.65;6.15;;;;;;;14.76;81.66;97969.77;1724850;80;21585;-51
2021/05/19 04:02:04;;;;;;;5.70;5.35;;;;;;;14.78;81.65;97969.13;1724338;80;21095;-51
2021/05/19 04:04:31;;;;;;;6.40;5.90;;;;;;;14.82;81.63;97969.68;1727913;80;21114;-52
2021/05/19 04:06:58;;;;;;;5.97;5.67;;;;;;;14.84;81.61;97971.76;1728603;80;21490;-52
2021/05/19 04:09:26;;;;;;;6.87;6.05;;;;;;;14.86;81.62;97974.69;1728241;80;21388;-51
2021/05/19 04:11:52;;;;;;;7.25;6.85;;;;;;;14.90;81.56;97973.88;1727063;80;21470;-52
2021/05/19 04:14:19;;;;;;;6.47;6.08;;;;;;;14.92;81.53;97977.31;1727795;80;21080;-53
2021/05/19 04:16:45;;;;;;;5.45;4.95;;;;;;;14.94;81.52;97969.90;1727472;80;21495;-52
2021/05/19 04:19:12;;;;;;;5.40;5.00;;;;;;;14.95;81.53;97971.61;1723249;80;21127;-52
2021/05/19 04:21:38;;;;;;;5.08;4.75;;;;;;;14.97;81.54;97970.98;1723073;80;21567;-52
2021/05/19 04:24:05;;;;;;;5.10;4.80;;;;;;;15.00;81.58;97975.59;1727829;80;21676;-53
2021/05/19 04:26:33;;;;;;;5.15;4.75;;;;;;;15.03;81.58;97972.60;1728984;80;20981;-52
2021/05/19 04:29:00;;;;;;;5.58;5.17;;;;;;;15.05;81.55;97969.25;1730266;80;21000;-52
2021/05/19 04:31:26;;;;;;;7.35;6.90;;;;;;;15.08;81.56;97973.51;1726847;80;21558;-52
2021/05/19 04:33:52;;;;;;;5.35;5.05;;;;;;;15.10;81.50;97970.16;1725793;80;21143;-52
2021/05/19 04:36:18;;;;;;;5.05;4.85;;;;;;;15.13;81.50;97971.23;1722834;80;21720;-52
2021/05/19 04:38:45;;;;;;;4.72;4.33;;;;;;;15.17;81.44;97973.99;1722607;80;21986;-52
2021/05/19 04:41:12;;;;;;;4.22;4.03;;;;;;;15.23;81.33;97967.13;1727713;80;21096;-53
2021/05/19 04:43:38;;;;;;;2.77;2.58;;;;;;;15.27;81.29;97968.05;1724960;80;21143;-53
2021/05/19 04:46:05;;;;;;;3.22;3.02;;;;;;;15.32;81.30;97969.81;1726262;80;21597;-52
2021/05/19 04:48:33;;;;;;;3.85;3.65;;;;;;;15.37;81.20;97964.83;1692674;82;21059;-53
2021/05/19 04:50:59;;;;;;;3.85;3.65;;;;;;;15.44;81.11;97966.44;1726199;80;21095;-52
2021/05/19 04:53:26;;;;;;;3.12;2.58;;;;;;;15.50;81.08;97961.77;1725706;80;21123;-53
2021/05/19 04:55:53;;;;;;;2.37;2.00;;;;;;;15.56;80.85;97958.52;1726462;80;21159;-52
2021/05/19 04:58:24;;;;;;;2.95;2.75;;;;;;;15.63;80.72;97963.70;1728999;80;21473;-52
2021/05/19 05:00:48;;;;;;;2.80;2.45;;;;;;;15.73;80.69;97969.09;1725755;80;21448;-52
2021/05/19 05:03:14;;;;;;;2.73;1.73;;;;;;;15.83;80.92;97965.80;1727025;80;21713;-54
2021/05/19 05:05:41;;;;;;;2.50;1.72;;;;;;;15.94;80.91;97970.19;1722328;80;21075;-52
2021/05/19 05:08:07;;;;;;;1.65;1.55;;;;;;;16.04;80.75;97960.14;1731405;80;21537;-52
2021/05/19 05:10:34;;;;;;;2.08;1.87;;;;;;;16.14;80.39;97965.87;1728242;80;21837;-52
2021/05/19 05:13:00;;;;;;;2.58;2.47;;;;;;;16.25;80.12;97963.42;1727366;80;21765;-52
2021/05/19 05:15:27;;;;;;;2.40;2.27;;;;;;;16.36;79.79;97961.86;1725198;80;21509;-52
2021/05/19 05:17:53;;;;;;;2.95;2.75;;;;;;;16.44;79.53;97961.95;1728249;80;20929;-53
2021/05/19 05:20:21;;;;;;;2.65;1.95;;;;;;;16.52;79.04;97970.17;1727202;80;20945;-52
2021/05/19 05:22:49;;;;;;;1.20;1.10;;;;;;;16.57;78.78;97962.44;1728136;80;21781;-52
2021/05/19 05:25:17;;;;;;;0.95;0.90;;;;;;;16.62;78.31;97964.20;1730803;80;21062;-52
2021/05/19 05:27:47;;;;;;;1.72;1.10;;;;;;;16.67;77.81;97962.91;1730046;80;20949;-52
2021/05/19 05:30:14;;;;;;;3.12;2.20;;;;;;;16.69;77.42;97965.79;1729460;80;20941;-52
2021/05/19 05:32:40;;;;;;;1.75;1.20;;;;;;;16.71;77.48;97964.28;1727374;80;21122;-52
2021/05/19 05:35:08;;;;;;;1.85;1.57;;;;;;;16.72;77.21;97960.06;1726746;80;20952;-52
2021/05/19 05:37:35;;;;;;;1.20;1.10;;;;;;;16.72;77.06;97972.28;1724627;80;21624;-52
2021/05/19 05:40:02;;;;;;;1.52;1.30;;;;;;;16.73;76.77;97971.78;1726204;80;20996;-52
2021/05/19 05:42:28;;;;;;;4.00;1.52;;;;;;;16.73;76.41;97968.56;1728873;80;21398;-53
2021/05/19 05:44:54;;;;;;;1.10;1.00;;;;;;;16.72;76.33;97976.36;1728432;80;21802;-52
2021/05/19 05:47:21;;;;;;;1.30;1.20;;;;;;;16.73;76.16;97970.42;1728582;80;20970;-52
2021/05/19 05:49:50;;;;;;;3.20;1.30;;;;;;;16.71;75.87;97981.44;1728180;80;21796;-52
2021/05/19 05:52:17;;;;;;;2.00;1.30;;;;;;;16.70;75.90;97981.09;1693494;82;21028;-52
2021/05/19 05:54:43;;;;;;;2.42;1.35;;;;;;;16.67;75.63;97984.13;1727203;80;21415;-52
2021/05/19 05:57:10;;;;;;;1.65;1.05;;;;;;;16.62;75.51;97975.07;1727781;80;22508;-53
2021/05/19 05:59:36;;;;;;;2.35;1.40;;;;;;;16.63;75.50;97981.36;1723979;80;20969;-52
2021/05/19 06:02:03;;;;;;;1.95;1.50;;;;;;;16.62;75.64;97977.79;1730329;80;21603;-52
2021/05/19 06:04:30;;;;;;;1.32;1.10;;;;;;;16.64;75.58;97986.64;1730304;80;21036;-53
2021/05/19 06:06:56;;;;;;;1.50;1.30;;;;;;;16.67;75.58;97984.13;1724788;80;21495;-52
2021/05/19 06:09:23;;;;;;;5.22;1.40;;;;;;;16.71;75.25;97990.09;1723640;80;21460;-52
2021/05/19 06:11:49;;;;;;;2.52;1.35;;;;;;;16.73;75.26;97991.66;1729897;80;21672;-53
2021/05/19 06:14:18;;;;;;;2.80;1.65;;;;;;;16.75;75.36;97995.58;1725714;80;21088;-52
2021/05/19 06:16:48;;;;;;;1.30;1.20;;;;;;;16.75;75.51;97996.94;1722704;80;21080;-53
2021/05/19 06:19:14;;;;;;;2.58;1.07;;;;;;;16.76;75.36;97994.58;1726547;80;21155;-52
2021/05/19 06:21:42;;;;;;;1.35;1.00;;;;;;;16.79;75.06;97996.45;1725586;80;21174;-52
2021/05/19 06:24:11;;;;;;;0.82;0.82;;;;;;;16.83;74.77;97994.30;1724359;80;21182;-53
2021/05/19 06:26:38;;;;;;;1.22;1.12;;;;;;;16.84;74.64;97998.19;1728081;80;21168;-52
2021/05/19 06:29:04;;;;;;;3.52;1.17;;;;;;;16.89;74.43;97995.02;1728790;80;22216;-53
2021/05/19 06:31:30;;;;;;;1.67;1.40;;;;;;;16.96;73.97;98000.18;1726516;80;20937;-53
2021/05/19 06:33:58;;;;;;;1.77;1.60;;;;;;;17.06;73.71;97997.37;1725387;80;21186;-52
2021/05/19 06:36:24;;;;;;;2.45;1.57;;;;;;;17.13;73.42;97996.59;1727083;80;21117;-52
2021/05/19 06:38:50;;;;;;;1.85;1.22;;;;;;;17.20;73.23;97991.37;1722899;80;21824;-52
2021/05/19 06:41:18;;;;;;;3.08;1.00;;;;;;;17.27;73.20;97991.08;1728017;80;21142;-52
2021/05/19 06:43:45;;;;;;;0.80;0.70;;;;;;;17.36;73.41;97996.42;1726884;80;21119;-53
2021/05/19 06:46:13;;;;;;;0.60;0.60;;;;;;;17.48;73.11;98001.61;1727810;80;21225;-52
2021/05/19 06:48:41;;;;;;;0.72;0.72;;;;;;;17.60;72.48;98000.34;1725390;80;21198;-53
2021/05/19 06:51:07;;;;;;;0.70;0.70;;;;;;;17.70;72.42;98005.18;1723039;80;21978;-53
2021/05/19 06:53:33;;;;;;;1.22;0.70;;;;;;;17.79;71.86;98005.58;1723993;80;21644;-52
2021/05/19 06:56:01;;;;;;;1.02;0.70;;;;;;;17.87;71.30;98012.42;1726594;80;21131;-53
2021/05/19 06:58:27;;;;;;;0.70;0.70;;;;;;;17.94;71.17;98012.15;1727880;80;21609;-53
2021/05/19 07:00:55;;;;;;;1.47;0.60;;;;;;;17.98;70.63;98021.68;1724330;80;21901;-52
2021/05/19 07:03:21;;;;;;;0.90;0.60;;;;;;;18.00;69.98;98021.52;1722127;80;21158;-52
2021/05/19 07:05:48;;;;;;;0.40;0.40;;;;;;;18.04;69.78;98025.61;1729210;80;21176;-52
2021/05/19 07:08:14;;;;;;;1.00;0.40;;;;;;;18.05;69.38;98028.17;1691341;82;20978;-53
2021/05/19 07:10:41;;;;;;;0.45;0.45;;;;;;;18.06;69.35;98027.16;1726218;80;21086;-53
2021/05/19 07:13:07;;;;;;;0.82;0.80;;;;;;;18.05;69.03;98030.05;1725876;80;21131;-53
2021/05/19 07:15:38;;;;;;;1.22;0.47;;;;;;;18.04;68.98;98041.95;1728442;80;21210;-53
2021/05/19 07:18:07;;;;;;;1.62;0.50;;;;;;;18.01;69.07;98034.98;1727047;80;21093;-53
2021/05/19 07:20:33;;;;;;;0.80;0.50;;;;;;;17.97;68.73;98045.83;1725382;80;21080;-52
2021/05/19 07:23:00;;;;;;;0.82;0.50;;;;;;;17.93;68.65;98036.30;1729289;80;21146;-52
2021/05/19 07:25:27;;;;;;;1.12;0.60;;;;;;;17.90;68.60;98046.14;1727545;80;21095;-54
2021/05/19 07:27:53;;;;;;;0.57;0.50;;;;;;;17.85;68.89;98041.70;1725417;80;21111;-54
2021/05/19 07:30:20;;;;;;;0.50;0.50;;;;;;;17.83;68.88;98052.39;1725429;80;21139;-53
2021/05/19 07:32:47;;;;;;;0.47;0.40;;;;;;;17.79;68.95;98046.40;1724901;80;21116;-54
2021/05/19 07:35:13;;;;;;;0.50;0.50;;;;;;;17.75;69.00;98047.75;1726716;80;21147;-53
2021/05/19 07:37:40;;;;;;;0.60;0.42;;;;;;;17.71;68.97;98046.34;1729476;80;21763;-52
2021/05/19 07:40:08;;;;;;;0.50;0.50;;;;;;;17.67;69.13;98044.98;1726924;80;21401;-52
2021/05/19 07:42:36;;;;;;;0.50;0.50;;;;;;;17.65;69.22;98048.36;1734229;80;21092;-51
2021/05/19 07:45:04;;;;;;;0.45;0.40;;;;;;;17.62;69.05;98041.86;1727781;80;21564;-51
2021/05/19 07:47:31;;;;;;;0.70;0.30;;;;;;;17.60;69.04;98050.68;1723846;80;21131;-51
2021/05/19 07:49:58;;;;;;;0.40;0.30;;;;;;;17.62;69.38;98050.02;1727470;80;21088;-51
2021/05/19 07:52:25;;;;;;;1.62;0.35;;;;;;;17.66;69.55;98050.06;1722778;80;21158;-51
2021/05/19 07:54:51;;;;;;;0.20;0.20;;;;;;;17.71;69.57;98055.87;1726898;80;21734;-52
2021/05/19 07:57:24;;;;;;;2.15;0.30;;;;;;;17.76;69.13;98059.84;1731024;80;21624;-51
2021/05/19 08:00:06;;;;;;;0.33;0.30;;;;;;;17.80;68.58;98058.14;1741397;80;21015;-51
2021/05/19 08:02:17;;;;;;;0.42;0.30;;;;;;;17.88;68.07;98057.69;1738944;80;20971;-51
2021/05/19 08:04:44;;;;;;;0.30;0.30;;;;;;;17.95;68.08;98063.36;1742546;80;21002;-51
2021/05/19 08:07:10;;;;;;;0.60;0.30;;;;;;;18.01;68.33;98066.28;1705725;82;20985;-51
2021/05/19 08:09:37;;;;;;;0.72;0.40;;;;;;;18.09;68.06;98069.05;1678117;83;21452;-50
2021/05/19 08:12:04;;;;;;;2.45;0.30;;;;;;;18.15;67.54;98068.40;1671869;83;21579;-51
2021/05/19 08:14:31;;;;;;;0.55;0.25;;;;;;;18.21;67.16;98066.88;1674309;83;21044;-51
2021/05/19 08:16:58;;;;;;;0.45;0.20;;;;;;;18.28;66.39;98064.39;1675427;83;21028;-51
2021/05/19 08:19:26;;;;;;;0.40;0.30;;;;;;;18.34;65.95;98061.86;1677654;83;20996;-51
2021/05/19 08:21:52;;;;;;;0.65;0.30;;;;;;;18.41;66.05;98054.73;1674743;83;21000;-51
2021/05/19 08:24:19;;;;;;;0.40;0.28;;;;;;;18.49;66.37;98060.21;1676921;83;20948;-51
2021/05/19 08:26:46;;;;;;;1.85;0.30;;;;;;;18.58;66.35;98067.08;1672053;83;20969;-51
2021/05/19 08:29:12;;;;;;;0.37;0.35;;;;;;;18.65;65.33;98068.98;1677486;83;21092;-51
2021/05/19 08:31:39;;;;;;;0.60;0.30;;;;;;;18.67;64.86;98066.95;1675035;83;21076;-51
2021/05/19 08:34:08;;;;;;;0.30;0.20;;;;;;;18.70;64.40;98073.44;1673092;83;21905;-51
2021/05/19 08:36:34;;;;;;;0.88;0.30;;;;;;;18.70;64.08;98068.50;1674038;83;21024;-52
2021/05/19 08:39:01;;;;;;;0.72;0.20;;;;;;;18.71;63.84;98062.89;1672674;83;20992;-51
2021/05/19 08:41:27;;;;;;;0.30;0.20;;;;;;;18.72;63.65;98065.93;1671052;83;21032;-51
2021/05/19 08:43:53;;;;;;;0.60;0.30;;;;;;;18.72;63.21;98065.93;1674302;83;20971;-52
2021/05/19 08:46:20;;;;;;;1.85;0.78;;;;;;;18.74;62.67;98065.27;1674215;83;21162;-51
2021/05/19 08:48:54;;;;;;;0.28;0.20;;;;;;;18.76;62.53;98065.10;1678755;83;21159;-51
2021/05/19 08:51:16;;;;;;;0.42;0.20;;;;;;;18.79;62.03;98067.00;1673505;83;21747;-52
2021/05/19 08:53:42;;;;;;;0.20;0.20;;;;;;;18.82;62.45;98064.42;1673155;83;21131;-52
2021/05/19 08:56:13;;;;;;;0.90;0.20;;;;;;;18.89;62.45;98075.00;1677025;83;21150;-51
2021/05/19 08:58:40;;;;;;;0.20;0.20;;;;;;;18.97;62.59;98073.66;1655465;83;21428;-51
2021/05/19 09:01:06;;;;;;;0.20;0.20;;;;;;;19.04;62.10;98073.87;1644114;84;21052;-51
2021/05/19 09:03:34;;;;;;;0.20;0.20;;;;;;;19.10;61.53;98078.64;1648288;84;21533;-51
2021/05/19 09:06:03;;;;;;;1.00;0.20;;;;;;;19.16;60.32;98070.63;1646181;84;22100;-51
2021/05/19 09:08:29;;;;;;;0.10;0.10;;;;;;;19.22;60.07;98071.85;1724398;80;21081;-52
2021/05/19 09:12:12;;;;;;;0.20;0.20;;;;;;;19.33;59.11;98066.04;1810195;76;28024;-52
2021/05/19 09:15:00;;;;;;;0.40;0.20;;;;;;;19.30;59.93;98075.95;1800088;77;20996;-52
2021/05/19 09:17:28;;;;;;;0.20;0.20;;;;;;;19.32;59.60;98076.61;1796975;77;21060;-52
2021/05/19 09:20:11;;;;;;;1.27;0.20;;;;;;;19.33;59.20;98072.86;1796643;77;21091;-52
2021/05/19 09:22:46;;;;;;;0.53;0.20;;;;;;;19.32;59.61;98067.06;1793275;77;21085;-53
2021/05/19 09:25:21;;;;;;;;;;;;;;;19.33;59.12;98081.55;1799145;77;21582;-52
2021/05/19 09:27:49;;;;;;;0.50;0.10;;;;;;;19.34;58.95;98070.48;1798675;77;20182;-52
2021/05/19 09:30:18;;;;;;;0.20;0.20;;;;;;;19.33;58.35;98075.59;1797267;78;21724;-53
2021/05/19 09:32:45;;;;;;;0.20;0.10;;;;;;;19.31;58.05;98068.08;1790465;78;21001;-52
2021/05/19 09:35:12;;;;;;;0.20;0.20;;;;;;;19.31;58.61;98070.80;1796305;77;21036;-53
2021/05/19 09:37:39;;;;;;;0.30;0.10;;;;;;;19.32;57.87;98068.42;1800812;77;20985;-52
2021/05/19 09:40:11;;;;;;;0.60;0.37;;;;;;;19.33;57.33;98076.95;1738932;81;21598;-53
2021/05/19 09:42:51;;;;;;;0.47;0.10;;;;;;;19.34;56.73;98071.84;1727769;81;21149;-52
2021/05/19 09:45:24;;;;;;;0.70;0.10;;;;;;;19.36;56.65;98072.53;1724011;82;21102;-52
2021/05/19 09:47:51;;;;;;;0.75;0.10;;;;;;;19.40;56.17;98077.12;1720682;81;21011;-52
2021/05/19 09:50:21;;;;;;;0.10;0.10;;;;;;;19.44;56.44;98074.41;1720204;81;21140;-53
2021/05/19 09:53:16;;;;;;;0.10;0.10;;;;;;;19.49;56.80;98071.53;1721109;81;21162;-53
2021/05/19 09:55:54;;;;;;;0.13;0.10;;;;;;;19.54;56.57;98066.44;1716155;81;21636;-52
2021/05/19 09:58:40;;;;;;;0.62;0.10;;;;;;;19.60;56.40;98068.47;1721477;81;21098;-52
2021/05/19 10:01:06;;;;;;;0.10;0.10;;;;;;;19.65;55.76;98065.21;1718759;81;21703;-52
2021/05/19 10:03:34;;;;;;;2.67;0.10;;;;;;;19.71;55.52;98069.16;1720535;81;21517;-51
2021/05/19 10:06:11;;;;;;;0.10;0.10;;;;;;;19.75;55.05;98065.89;1721335;81;21034;-52
2021/05/19 10:08:32;;;;;;;0.20;0.20;;;;;;;19.80;55.03;98071.70;1720470;81;21946;-51
2021/05/19 10:11:01;;;;;;;3.50;0.20;;;;;;;19.83;54.87;98071.85;1713287;81;21076;-51
2021/05/19 10:13:32;;;;;;;0.20;0.20;;;;;;;19.86;54.68;98075.09;1708394;81;21477;-52
2021/05/19 10:16:00;;;;;;;1.40;0.20;;;;;;;19.91;55.22;98073.20;1713906;81;21596;-51
2021/05/19 10:18:31;;;;;;;1.60;0.20;;;;;;;19.98;55.86;98078.34;1713983;81;20991;-52
2021/05/19 10:20:58;;;;;;;0.17;0.10;;;;;;;20.06;55.72;98081.56;1709320;82;21125;-51
2021/05/19 10:23:28;;;;;;;0.25;0.17;;;;;;;20.11;55.15;98085.46;1712112;81;20980;-51
2021/05/19 10:26:07;;;;;;;0.10;0.10;;;;;;;20.16;54.87;98089.88;1713498;81;21533;-51
2021/05/19 10:28:45;;;;;;;0.15;0.10;;;;;;;20.21;55.00;98085.27;1713505;81;21008;-52
2021/05/19 10:31:31;;;;;;;0.30;0.20;;;;;;;20.26;54.17;98086.44;1714061;81;20913;-51
2021/05/19 10:34:00;;;;;;;0.20;0.20;;;;;;;20.27;55.19;98086.78;1712650;81;21594;-51
2021/05/19 10:36:41;;;;;;;1.00;0.33;;;;;;;20.26;55.78;98089.17;1710631;82;21877;-51
2021/05/19 10:39:16;;;;;;;0.35;0.30;;;;;;;20.24;56.27;98092.62;1709262;81;21107;-52
2021/05/19 10:41:52;;;;;;;3.62;0.28;;;;;;;20.23;56.53;98092.78;1710623;82;21078;-52
2021/05/19 10:44:25;;;;;;;0.28;0.23;;;;;;;20.24;56.75;98092.62;1709599;81;21181;-53
2021/05/19 10:47:11;;;;;;;0.40;0.30;;;;;;;20.28;57.59;98095.32;1711878;81;21704;-52
2021/05/19 10:49:59;;;;;;;0.88;0.30;;;;;;;20.30;57.38;98095.16;1711748;82;21516;-52
2021/05/19 10:52:48;;;;;;;0.30;0.30;;;;;;;20.33;57.19;98099.73;1708907;82;21102;-51
2021/05/19 10:58:02;;;;;;;0.50;0.40;;;;;;;20.45;57.67;98100.25;1711169;81;21142;-51
2021/05/19 11:00:31;;;;;;;2.10;0.40;;;;;;;20.50;57.61;98102.48;1714289;82;21783;-52
2021/05/19 11:03:05;;;;;;;1.10;0.40;;;;;;;20.49;57.12;98102.14;1713475;82;21486;-53
2021/05/19 11:05:36;;;;;;;1.07;0.40;;;;;;;20.47;56.92;98095.47;1709007;81;20983;-51
2021/05/19 11:08:13;;;;;;;1.67;0.30;;;;;;;20.45;55.72;98099.40;1714351;81;21275;-51
2021/05/19 11:10:48;;;;;;;1.05;0.40;;;;;;;20.36;55.55;98103.53;1700009;82;21655;-51
2021/05/19 11:13:16;;;;;;;2.27;0.30;;;;;;;20.34;55.73;98099.25;1702008;82;21451;-51
2021/05/19 11:21:23;;;;;;;0.40;0.40;;;;;;;20.41;55.97;98132.22;1769264;79;20938;-52
2021/05/19 11:24:08;;;;;;;1.82;0.40;;;;;;;20.30;57.07;98130.16;1767224;79;20941;-52
2021/05/19 11:26:46;;;;;;;2.05;0.50;;;;;;;20.14;58.14;98128.83;1734411;79;21032;-52
2021/05/19 11:29:15;;;;;;;1.87;0.40;;;;;;;19.97;59.05;98136.70;1772760;79;21682;-52
2021/05/19 11:31:44;;;;;;;0.60;0.60;;;;;;;19.77;60.11;98147.11;1769482;79;20914;-51
2021/05/19 11:34:12;;;;;;;0.62;0.62;;;;;;;19.63;60.31;98145.92;1766860;79;20970;-52
2021/05/19 11:36:44;;;;;;;0.62;0.60;;;;;;;19.45;60.46;98156.61;1768232;79;21512;-51
2021/05/19 11:39:39;;;;;;;0.43;0.33;;;;;;;19.27;60.73;98158.97;1770616;79;21525;-52
2021/05/19 11:42:17;;;;;;;0.53;0.35;;;;;;;19.12;61.09;98162.00;1770558;79;20902;-52
2021/05/19 11:44:54;;;;;;;1.37;0.30;;;;;;;19.02;61.40;98164.02;1765821;80;20968;-52
2021/05/19 11:47:29;;;;;;;0.30;0.20;;;;;;;18.95;60.99;98162.97;1771376;79;21695;-51
2021/05/19 11:50:13;;;;;;;1.67;0.20;;;;;;;18.80;60.11;98154.54;1765778;79;21124;-52